createdAt,value
2019-01-28T00:02:14.436Z,18.23
2019-01-28T00:04:42.848Z,13.88
2019-01-28T00:07:11.246Z,12.47
2019-01-28T00:09:39.663Z,13.13
2019-01-28T00:12:08.085Z,14.63
2019-01-28T00:14:36.483Z,14.00
2019-01-28T00:17:04.896Z,14.90
2019-01-28T00:19:33.327Z,16.82
2019-01-28T00:22:01.716Z,15.48
2019-01-28T00:24:30.132Z,15.72
2019-01-28T00:26:58.535Z,13.28
2019-01-28T00:29:26.931Z,14.03
2019-01-28T00:31:55.348Z,13.32
2019-01-28T00:34:23.751Z,12.05
2019-01-28T00:36:52.152Z,16.15
2019-01-28T00:39:20.570Z,12.10
2019-01-28T00:42:25.630Z,15.70
2019-01-28T00:44:54.037Z,11.08
2019-01-28T00:47:22.431Z,15.55
2019-01-28T00:49:50.851Z,14.85
2019-01-28T00:52:19.256Z,11.80
2019-01-28T00:54:47.670Z,12.20
2019-01-28T00:57:16.090Z,16.40
2019-01-28T00:59:44.483Z,12.07
2019-01-28T01:02:12.912Z,13.62
2019-01-28T01:04:41.332Z,14.53
2019-01-28T01:07:09.742Z,13.62
2019-01-28T01:09:38.140Z,11.12
2019-01-28T01:12:06.575Z,12.73
2019-01-28T01:14:34.995Z,13.35
2019-01-28T01:17:03.406Z,14.28
2019-01-28T01:19:31.811Z,14.25
2019-01-28T01:22:00.249Z,10.43
2019-01-28T01:24:28.651Z,13.70
2019-01-28T01:26:57.067Z,17.13
2019-01-28T01:29:25.467Z,17.62
2019-01-28T01:31:53.912Z,14.63
2019-01-28T01:34:22.311Z,15.30
2019-01-28T01:36:50.735Z,17.98
2019-01-28T01:39:19.132Z,15.35
2019-01-28T01:41:47.551Z,13.62
2019-01-28T01:44:15.952Z,11.83
2019-01-28T01:46:44.368Z,14.03
2019-01-28T01:49:12.771Z,14.40
2019-01-28T01:51:41.175Z,15.18
2019-01-28T01:54:09.585Z,13.53
2019-01-28T01:56:37.994Z,14.73
2019-01-28T01:59:06.383Z,14.73
2019-01-28T02:01:34.836Z,12.45
2019-01-28T02:04:03.267Z,15.83
2019-01-28T02:06:31.685Z,13.18
2019-01-28T02:09:00.088Z,14.38
2019-01-28T02:11:28.498Z,17.02
2019-01-28T02:13:56.899Z,15.68
2019-01-28T02:16:25.310Z,15.43
2019-01-28T02:18:53.711Z,13.17
2019-01-28T02:21:22.148Z,12.28
2019-01-28T02:23:50.545Z,12.15
2019-01-28T02:26:18.939Z,13.58
2019-01-28T02:28:47.371Z,11.80
2019-01-28T02:31:15.791Z,12.00
2019-01-28T02:33:44.226Z,13.88
2019-01-28T02:36:12.916Z,13.85
2019-01-28T02:38:41.338Z,13.85
2019-01-28T02:41:09.744Z,13.10
2019-01-28T02:43:38.154Z,11.85
2019-01-28T02:46:06.623Z,13.03
2019-01-28T02:48:35.062Z,12.10
2019-01-28T02:51:03.460Z,14.23
2019-01-28T02:53:31.877Z,12.03
2019-01-28T02:56:00.280Z,13.90
2019-01-28T02:58:28.689Z,15.10
2019-01-28T03:00:57.089Z,12.10
2019-01-28T03:03:25.491Z,12.53
2019-01-28T03:05:53.909Z,13.20
2019-01-28T03:08:22.345Z,12.93
2019-01-28T03:10:50.749Z,15.05
2019-01-28T03:13:19.163Z,12.55
2019-01-28T03:15:47.569Z,12.70
2019-01-28T03:18:15.990Z,13.22
2019-01-28T03:20:44.388Z,12.73
2019-01-28T03:23:13.087Z,14.18
2019-01-28T03:25:41.809Z,13.90
2019-01-28T03:28:10.216Z,13.03
2019-01-28T03:30:38.621Z,12.80
2019-01-28T03:33:07.034Z,13.17
2019-01-28T03:35:35.447Z,13.85
2019-01-28T03:38:03.887Z,14.15
2019-01-28T03:40:32.281Z,14.05
2019-01-28T03:43:00.697Z,13.83
2019-01-28T03:45:29.195Z,14.40
2019-01-28T03:47:57.617Z,15.00
2019-01-28T03:50:26.156Z,14.55
2019-01-28T03:52:54.615Z,16.37
2019-01-28T03:55:23.036Z,15.18
2019-01-28T03:57:51.504Z,16.30
2019-01-28T04:00:25.549Z,15.70
2019-01-28T04:02:54.432Z,14.93
2019-01-28T04:05:23.669Z,16.80
2019-01-28T04:07:52.136Z,18.12
2019-01-28T04:10:24.515Z,17.23
2019-01-28T04:12:53.201Z,18.90
2019-01-28T04:15:24.150Z,19.50
2019-01-28T04:17:52.716Z,19.43
2019-01-28T04:20:22.371Z,19.23
2019-01-28T04:22:50.776Z,18.70
2019-01-28T04:25:19.207Z,18.35
2019-01-28T04:27:47.600Z,18.43
2019-01-28T04:30:23.657Z,18.73
2019-01-28T04:32:52.068Z,18.00
2019-01-28T04:35:20.543Z,18.12
2019-01-28T04:37:48.955Z,17.35
2019-01-28T04:40:17.489Z,18.07
2019-01-28T04:42:45.923Z,18.70
2019-01-28T04:45:19.288Z,18.10
2019-01-28T04:47:48.739Z,19.50
2019-01-28T04:50:21.594Z,18.10
2019-01-28T04:52:50.351Z,19.60
2019-01-28T04:55:18.919Z,18.20
2019-01-28T04:57:47.343Z,18.95
2019-01-28T05:00:21.068Z,18.82
2019-01-28T05:02:49.494Z,19.00
2019-01-28T05:05:17.922Z,20.00
2019-01-28T05:07:46.375Z,18.82
2019-01-28T05:10:17.253Z,20.37
2019-01-28T05:12:45.922Z,20.35
2019-01-28T05:15:17.448Z,19.12
2019-01-28T05:17:45.875Z,21.60
2019-01-28T05:20:20.007Z,20.48
2019-01-28T05:22:48.470Z,20.12
2019-01-28T05:25:17.435Z,21.15
2019-01-28T05:27:46.382Z,21.10
2019-01-28T05:30:17.796Z,20.30
2019-01-28T05:32:46.266Z,20.52
2019-01-28T05:35:17.118Z,19.85
2019-01-28T05:37:45.662Z,20.50
2019-01-28T05:40:16.943Z,21.37
2019-01-28T05:42:45.685Z,21.07
2019-01-28T05:45:16.151Z,20.55
2019-01-28T05:47:44.564Z,20.72
2019-01-28T05:50:14.727Z,22.75
2019-01-28T05:52:43.149Z,21.27
2019-01-28T05:55:16.202Z,20.40
2019-01-28T05:57:44.599Z,20.48
2019-01-28T06:00:16.681Z,22.35
2019-01-28T06:02:45.067Z,21.42
2019-01-28T06:05:13.830Z,21.02
2019-01-28T06:07:42.225Z,20.80
2019-01-28T06:10:13.583Z,20.40
2019-01-28T06:12:41.989Z,22.82
2019-01-28T06:15:18.933Z,20.88
2019-01-28T06:17:47.386Z,20.93
2019-01-28T06:20:21.407Z,23.03
2019-01-28T06:22:49.822Z,20.10
2019-01-28T06:25:18.242Z,22.50
2019-01-28T06:27:46.919Z,20.17
2019-01-28T06:30:20.971Z,20.37
2019-01-28T06:32:49.386Z,20.40
2019-01-28T06:35:17.854Z,19.97
2019-01-28T06:37:46.319Z,21.10
2019-01-28T06:40:20.405Z,20.25
2019-01-28T06:42:48.873Z,21.40
2019-01-28T06:45:17.390Z,22.60
2019-01-28T06:47:46.859Z,21.93
2019-01-28T06:50:20.726Z,20.77
2019-01-28T06:52:49.166Z,20.62
2019-01-28T06:55:17.947Z,21.80
2019-01-28T06:57:46.439Z,21.80
2019-01-28T07:00:26.642Z,21.67
2019-01-28T07:02:55.249Z,22.85
2019-01-28T07:05:23.657Z,22.20
2019-01-28T07:07:52.075Z,24.63
2019-01-28T07:10:20.484Z,22.15
2019-01-28T07:12:48.896Z,21.42
2019-01-28T07:15:19.423Z,20.50
2019-01-28T07:17:54.631Z,20.20
2019-01-28T07:20:24.511Z,19.95
2019-01-28T07:22:53.209Z,20.15
2019-01-28T07:25:21.619Z,20.20
2019-01-28T07:27:50.350Z,19.55
2019-01-28T07:30:33.147Z,19.65
2019-01-28T07:33:01.572Z,20.35
2019-01-28T07:35:29.976Z,19.50
2019-01-28T07:37:58.388Z,20.50
2019-01-28T07:40:26.830Z,22.52
2019-01-28T07:42:55.321Z,22.32
2019-01-28T07:45:28.948Z,21.40
2019-01-28T07:48:02.783Z,21.07
2019-01-28T07:50:28.073Z,19.95
2019-01-28T07:52:56.533Z,20.77
2019-01-28T07:55:24.935Z,19.80
2019-01-28T07:57:53.357Z,19.62
2019-01-28T08:00:24.783Z,19.57
2019-01-28T08:02:53.181Z,21.30
2019-01-28T08:05:21.857Z,19.48
2019-01-28T08:07:50.352Z,18.55
2019-01-28T08:10:19.904Z,20.15
2019-01-28T08:12:49.140Z,21.12
2019-01-28T08:15:20.164Z,25.55
2019-01-28T08:17:49.159Z,20.90
2019-01-28T08:20:18.900Z,20.50
2019-01-28T08:22:47.438Z,18.70
2019-01-28T08:25:20.711Z,18.73
2019-01-28T08:27:49.260Z,19.95
2019-01-28T08:30:26.188Z,19.35
2019-01-28T08:32:54.615Z,20.87
2019-01-28T08:35:23.672Z,18.82
2019-01-28T08:37:52.107Z,20.50
2019-01-28T08:40:21.949Z,21.37
2019-01-28T08:42:50.479Z,18.80
2019-01-28T08:45:18.915Z,18.60
2019-01-28T08:47:47.315Z,17.98
2019-01-28T08:50:21.268Z,18.65
2019-01-28T08:52:49.668Z,19.35
2019-01-28T08:55:20.034Z,18.00
2019-01-28T08:57:48.596Z,18.05
2019-01-28T09:00:29.303Z,19.20
2019-01-28T09:02:58.163Z,17.10
2019-01-28T09:05:26.937Z,17.23
2019-01-28T09:07:55.346Z,18.20
2019-01-28T09:10:26.872Z,18.02
2019-01-28T09:12:55.295Z,17.15
2019-01-28T09:15:24.746Z,17.42
2019-01-28T09:17:53.483Z,18.85
2019-01-28T09:20:24.399Z,17.40
2019-01-28T09:22:52.803Z,18.52
2019-01-28T09:25:21.457Z,16.67
2019-01-28T09:27:49.848Z,19.98
2019-01-28T09:30:33.571Z,16.95
2019-01-28T09:33:01.977Z,21.13
2019-01-28T09:35:30.388Z,18.33
2019-01-28T09:37:59.946Z,17.73
2019-01-28T09:40:31.287Z,18.65
2019-01-28T09:42:59.708Z,20.52
2019-01-28T09:45:30.359Z,16.32
2019-01-28T09:47:58.791Z,17.23
2019-01-28T09:50:27.676Z,19.05
2019-01-28T09:52:58.450Z,17.40
2019-01-28T09:55:27.015Z,18.00
2019-01-28T09:57:55.543Z,20.92
2019-01-28T10:00:32.829Z,16.00
2019-01-28T10:03:01.401Z,16.70
2019-01-28T10:05:29.868Z,15.97
2019-01-28T10:07:58.289Z,16.30
2019-01-28T10:10:27.033Z,17.65
2019-01-28T10:12:55.423Z,18.17
2019-01-28T10:15:28.613Z,17.13
2019-01-28T10:17:55.799Z,18.15
2019-01-28T10:20:38.657Z,19.10
2019-01-28T10:23:07.155Z,18.90
2019-01-28T10:25:35.612Z,16.80
2019-01-28T10:28:04.184Z,16.93
2019-01-28T10:30:43.558Z,16.90
2019-01-28T10:33:12.212Z,16.82
2019-01-28T10:35:41.556Z,16.87
2019-01-28T10:38:10.095Z,16.32
2019-01-28T10:40:40.737Z,16.52
2019-01-28T10:43:09.511Z,17.20
2019-01-28T10:45:37.984Z,17.27
2019-01-28T10:48:07.435Z,18.00
2019-01-28T10:50:36.615Z,17.67
2019-01-28T10:53:05.278Z,15.90
2019-01-28T10:55:33.703Z,15.53
2019-01-28T10:58:02.143Z,17.40
2019-01-28T11:00:39.541Z,15.68
2019-01-28T11:03:09.298Z,16.48
2019-01-28T11:05:37.739Z,15.55
2019-01-28T11:08:06.827Z,14.98
2019-01-28T11:10:35.234Z,14.80
2019-01-28T11:13:05.232Z,14.73
2019-01-28T11:15:33.909Z,16.23
2019-01-28T11:18:17.586Z,15.65
2019-01-28T11:20:46.323Z,15.32
2019-01-28T11:23:14.828Z,15.53
2019-01-28T11:25:43.264Z,15.88
2019-01-28T11:28:11.676Z,15.50
2019-01-28T11:30:44.977Z,13.93
2019-01-28T11:33:13.539Z,14.03
2019-01-28T11:35:42.753Z,15.58
2019-01-28T11:38:12.372Z,15.67
2019-01-28T11:40:40.901Z,15.63
2019-01-28T11:43:09.517Z,14.70
2019-01-28T11:45:43.674Z,14.30
2019-01-28T11:48:12.821Z,13.80
2019-01-28T11:50:41.276Z,15.35
2019-01-28T11:53:09.699Z,17.65
2019-01-28T11:55:38.131Z,13.58
2019-01-28T11:58:06.860Z,14.00
2019-01-28T12:00:40.015Z,13.85
2019-01-28T12:03:08.435Z,15.43
2019-01-28T12:05:36.912Z,15.38
2019-01-28T12:08:05.672Z,14.07
2019-01-28T12:10:34.103Z,14.15
2019-01-28T12:13:02.505Z,14.98
2019-01-28T12:15:30.921Z,15.68
2019-01-28T12:17:59.312Z,15.70
2019-01-28T12:20:27.760Z,16.55
2019-01-28T12:22:56.216Z,16.32
2019-01-28T12:25:24.674Z,17.32
2019-01-28T12:27:53.139Z,15.58
2019-01-28T12:30:27.136Z,16.07
2019-01-28T12:32:55.554Z,16.82
2019-01-28T12:35:23.956Z,14.80
2019-01-28T12:37:52.377Z,14.55
2019-01-28T12:40:22.535Z,14.53
2019-01-28T12:42:52.616Z,15.53
2019-01-28T12:45:28.388Z,14.50
2019-01-28T12:47:58.560Z,13.60
2019-01-28T12:50:27.516Z,14.98
2019-01-28T12:52:55.908Z,14.80
2019-01-28T12:55:26.530Z,14.55
2019-01-28T12:57:55.023Z,14.50
2019-01-28T13:00:28.030Z,14.98
2019-01-28T13:02:56.492Z,14.10
2019-01-28T13:05:27.052Z,15.80
2019-01-28T13:07:55.533Z,15.75
2019-01-28T13:10:25.603Z,15.98
2019-01-28T13:12:54.076Z,16.50
2019-01-28T13:15:31.544Z,15.98
2019-01-28T13:18:00.083Z,16.05
2019-01-28T13:20:28.902Z,16.48
2019-01-28T13:22:57.320Z,16.50
2019-01-28T13:25:28.540Z,16.17
2019-01-28T13:27:56.953Z,17.32
2019-01-28T13:30:27.705Z,16.07
2019-01-28T13:32:57.081Z,17.47
2019-01-28T13:35:25.485Z,17.23
2019-01-28T13:37:53.896Z,18.05
2019-01-28T13:40:22.363Z,17.10
2019-01-28T13:42:50.781Z,18.05
2019-01-28T13:45:20.824Z,18.65
2019-01-28T13:47:50.523Z,19.20
2019-01-28T13:50:20.972Z,18.60
2019-01-28T13:52:49.959Z,18.80
2019-01-28T13:55:19.631Z,19.00
2019-01-28T13:57:48.121Z,22.30
2019-01-28T14:00:30.745Z,19.52
2019-01-28T14:02:59.303Z,20.40
2019-01-28T14:05:28.357Z,23.25
2019-01-28T14:07:57.103Z,21.65
2019-01-28T14:10:25.872Z,20.37
2019-01-28T14:12:54.516Z,21.27
2019-01-28T14:15:25.779Z,21.00
2019-01-28T14:17:54.227Z,21.97
2019-01-28T14:20:24.972Z,23.22
2019-01-28T14:22:53.393Z,21.40
2019-01-28T14:25:21.870Z,21.80
2019-01-28T14:27:50.311Z,26.25
2019-01-28T14:30:24.827Z,24.70
2019-01-28T14:32:53.262Z,25.25
2019-01-28T14:35:21.837Z,23.07
2019-01-28T14:37:50.316Z,25.43
2019-01-28T14:40:21.867Z,23.87
2019-01-28T14:42:50.280Z,23.95
2019-01-28T14:45:18.719Z,24.10
2019-01-28T14:47:47.148Z,25.20
2019-01-28T14:50:24.831Z,27.40
2019-01-28T14:52:53.338Z,24.70
2019-01-28T14:55:21.922Z,22.98
2019-01-28T14:57:50.344Z,24.18
2019-01-28T15:00:21.868Z,23.55
2019-01-28T15:02:50.267Z,22.75
2019-01-28T15:05:19.041Z,23.83
2019-01-28T15:07:47.443Z,24.05
2019-01-28T15:10:18.512Z,23.18
2019-01-28T15:12:47.782Z,23.60
2019-01-28T15:15:31.424Z,24.40
2019-01-28T15:18:00.463Z,23.07
2019-01-28T15:20:28.952Z,26.12
2019-01-28T15:22:57.353Z,24.40
2019-01-28T15:25:25.753Z,27.70
2019-01-28T15:27:54.161Z,23.55
2019-01-28T15:30:27.667Z,23.80
2019-01-28T15:32:56.159Z,24.75
2019-01-28T15:35:24.573Z,26.00
2019-01-28T15:37:52.977Z,25.15
2019-01-28T15:40:24.313Z,27.55
2019-01-28T15:42:52.782Z,27.85
2019-01-28T15:45:26.885Z,28.17
2019-01-28T15:47:55.294Z,26.80
2019-01-28T15:50:23.802Z,29.40
2019-01-28T15:52:52.525Z,26.47
2019-01-28T15:55:27.068Z,25.37
2019-01-28T15:57:55.463Z,26.37
2019-01-28T16:00:32.104Z,25.85
2019-01-28T16:03:00.640Z,24.52
2019-01-28T16:05:29.051Z,24.32
2019-01-28T16:07:57.466Z,20.97
2019-01-28T16:10:26.129Z,18.30
2019-01-28T16:12:55.452Z,16.80
2019-01-28T16:15:35.176Z,17.60
2019-01-28T16:18:08.648Z,19.15
2019-01-28T16:20:33.887Z,18.35
2019-01-28T16:23:02.289Z,21.27
2019-01-28T16:25:30.756Z,22.93
2019-01-28T16:27:59.511Z,24.27
2019-01-28T16:30:29.679Z,22.55
2019-01-28T16:32:58.117Z,23.38
2019-01-28T16:35:26.676Z,26.15
2019-01-28T16:37:55.656Z,25.43
2019-01-28T16:40:26.980Z,29.10
2019-01-28T16:42:56.222Z,27.85
2019-01-28T16:45:24.627Z,30.25
2019-01-28T16:47:53.120Z,30.72
2019-01-28T16:50:27.336Z,30.10
2019-01-28T16:52:56.253Z,31.77
2019-01-28T16:55:24.664Z,31.17
2019-01-28T16:57:53.521Z,37.30
2019-01-28T17:00:30.526Z,33.00
2019-01-28T17:02:58.967Z,35.92
2019-01-28T17:05:29.253Z,31.73
2019-01-28T17:07:57.731Z,23.87
2019-01-28T17:10:26.301Z,20.70
2019-01-28T17:12:54.729Z,17.20
2019-01-28T17:15:23.879Z,15.80
2019-01-28T17:17:52.458Z,15.10
2019-01-28T17:20:34.864Z,13.55
2019-01-28T17:22:57.523Z,13.38
2019-01-28T17:25:38.056Z,13.27
2019-01-28T17:28:06.467Z,12.85
2019-01-28T17:30:37.816Z,13.03
2019-01-28T17:33:06.911Z,12.53
2019-01-28T17:35:35.651Z,12.35
2019-01-28T17:38:05.815Z,13.48
2019-01-28T17:40:34.680Z,13.15
2019-01-28T17:43:03.118Z,13.48
2019-01-28T17:45:31.515Z,14.15
2019-01-28T17:47:59.930Z,14.73
2019-01-28T17:50:28.427Z,14.58
2019-01-28T17:52:56.892Z,14.75
2019-01-28T17:55:25.304Z,14.55
2019-01-28T17:57:54.616Z,13.65
2019-01-28T18:00:29.713Z,13.65
2019-01-28T18:02:58.549Z,12.90
2019-01-28T18:05:27.238Z,12.85
2019-01-28T18:07:55.728Z,12.20
2019-01-28T18:10:24.635Z,12.53
2019-01-28T18:12:53.063Z,11.35
2019-01-28T18:15:23.807Z,12.00
2019-01-28T18:17:52.237Z,11.55
2019-01-28T18:20:20.727Z,11.35
2019-01-28T18:22:49.142Z,11.80
2019-01-28T18:25:32.316Z,12.07
2019-01-28T18:28:00.742Z,12.45
2019-01-28T18:30:32.927Z,11.68
2019-01-28T18:33:01.328Z,11.95
2019-01-28T18:35:30.140Z,12.05
2019-01-28T18:37:58.549Z,11.40
2019-01-28T18:40:27.056Z,12.07
2019-01-28T18:42:55.810Z,11.63
2019-01-28T18:45:24.340Z,11.85
2019-01-28T18:47:52.755Z,11.30
2019-01-28T18:50:23.380Z,10.78
2019-01-28T18:52:52.537Z,11.65
2019-01-28T18:55:22.151Z,11.08
2019-01-28T18:57:51.086Z,11.20
2019-01-28T19:00:29.632Z,11.00
2019-01-28T19:02:58.017Z,12.30
2019-01-28T19:05:30.848Z,11.45
2019-01-28T19:08:00.902Z,11.48
2019-01-28T19:10:33.943Z,11.60
2019-01-28T19:13:06.951Z,11.95
2019-01-28T19:15:36.990Z,11.95
2019-01-28T19:18:22.051Z,12.60
2019-01-28T19:20:52.125Z,12.47
2019-01-28T19:23:20.544Z,13.25
2019-01-28T19:25:48.943Z,12.15
2019-01-28T19:28:17.347Z,12.40
2019-01-28T19:30:45.863Z,12.95
2019-01-28T19:33:14.548Z,11.95
2019-01-28T19:35:43.239Z,12.40
2019-01-28T19:38:11.655Z,12.20
2019-01-28T19:40:40.072Z,11.97
2019-01-28T19:43:08.495Z,11.20
2019-01-28T19:45:36.912Z,12.65
2019-01-28T19:48:05.847Z,14.00
2019-01-28T19:50:34.652Z,13.30
2019-01-28T19:53:03.075Z,14.15
2019-01-28T19:55:31.519Z,13.35
2019-01-28T19:57:59.920Z,13.90
2019-01-28T20:00:29.864Z,13.00
2019-01-28T20:02:58.418Z,13.45
2019-01-28T20:05:26.908Z,14.00
2019-01-28T20:07:55.300Z,13.48
2019-01-28T20:10:23.732Z,14.05
2019-01-28T20:12:52.210Z,13.00
2019-01-28T20:15:22.750Z,13.50
2019-01-28T20:17:51.517Z,12.80
2019-01-28T20:20:20.663Z,13.20
2019-01-28T20:22:49.110Z,12.98
2019-01-28T20:25:18.609Z,13.48
2019-01-28T20:27:47.159Z,13.22
2019-01-28T20:30:27.188Z,13.22
2019-01-28T20:32:55.620Z,13.00
2019-01-28T20:35:24.120Z,13.10
2019-01-28T20:37:52.541Z,13.22
2019-01-28T20:40:21.287Z,12.68
2019-01-28T20:42:50.039Z,11.90
2019-01-28T20:45:21.443Z,11.50
2019-01-28T20:47:49.915Z,12.28
2019-01-28T20:50:21.169Z,11.50
2019-01-28T20:52:49.752Z,11.57
2019-01-28T20:55:18.263Z,11.18
2019-01-28T20:57:46.763Z,11.43
2019-01-28T21:00:17.855Z,11.80
2019-01-28T21:02:46.378Z,11.93
2019-01-28T21:05:17.187Z,11.40
2019-01-28T21:07:45.671Z,11.53
2019-01-28T21:10:16.733Z,11.85
2019-01-28T21:12:45.239Z,11.70
2019-01-28T21:15:15.555Z,11.00
2019-01-28T21:17:46.290Z,11.57
2019-01-28T21:20:19.496Z,11.22
2019-01-28T21:22:49.054Z,11.65
2019-01-28T21:25:25.779Z,11.80
2019-01-28T21:27:54.188Z,11.33
2019-01-28T21:30:27.732Z,11.35
2019-01-28T21:32:56.145Z,11.03
2019-01-28T21:35:38.470Z,10.90
2019-01-28T21:38:08.521Z,11.57
2019-01-28T21:40:36.929Z,11.80
2019-01-28T21:43:05.337Z,11.25
2019-01-28T21:45:33.775Z,11.28
2019-01-28T21:48:03.905Z,11.53
2019-01-28T21:50:32.731Z,11.67
2019-01-28T21:53:01.150Z,11.35
2019-01-28T21:55:29.571Z,11.93
2019-01-28T21:57:58.002Z,11.33
2019-01-28T22:00:26.872Z,12.07
2019-01-28T22:02:55.319Z,11.88
2019-01-28T22:05:23.747Z,11.97
2019-01-28T22:07:52.170Z,11.40
2019-01-28T22:10:20.567Z,11.00
2019-01-28T22:12:48.988Z,11.90
2019-01-28T22:15:18.430Z,11.20
2019-01-28T22:17:46.835Z,11.12
2019-01-28T22:20:15.791Z,11.78
2019-01-28T22:22:44.198Z,11.00
2019-01-28T22:25:14.388Z,11.10
2019-01-28T22:27:42.798Z,11.43
2019-01-28T22:30:20.059Z,10.48
2019-01-28T22:32:48.536Z,11.65
2019-01-28T22:35:16.945Z,11.45
2019-01-28T22:37:45.343Z,13.68
2019-01-28T22:40:18.006Z,10.85
2019-01-28T22:42:46.400Z,10.72
2019-01-28T22:45:16.876Z,10.60
2019-01-28T22:47:46.007Z,11.28
2019-01-28T22:50:16.932Z,10.90
2019-01-28T22:52:45.528Z,10.50
2019-01-28T22:55:16.771Z,10.23
2019-01-28T22:57:45.176Z,11.25
2019-01-28T23:00:21.415Z,10.75
2019-01-28T23:02:49.823Z,10.05
2019-01-28T23:05:18.224Z,10.20
2019-01-28T23:07:46.623Z,10.63
2019-01-28T23:10:15.040Z,10.47
2019-01-28T23:12:43.434Z,10.23
2019-01-28T23:15:11.859Z,10.78
2019-01-28T23:17:40.267Z,16.25
2019-01-28T23:20:09.431Z,11.50
2019-01-28T23:22:37.854Z,11.60
2019-01-28T23:25:06.887Z,12.98
2019-01-28T23:27:35.316Z,12.75
2019-01-28T23:30:05.579Z,12.28
2019-01-28T23:32:33.994Z,11.97
2019-01-28T23:35:02.399Z,11.45
2019-01-28T23:37:30.819Z,11.43
2019-01-28T23:39:59.245Z,12.53
2019-01-28T23:42:27.726Z,14.35
2019-01-28T23:44:56.147Z,10.90
2019-01-28T23:47:24.532Z,11.30
2019-01-28T23:49:52.931Z,15.08
2019-01-28T23:52:24.926Z,12.00
2019-01-28T23:54:51.487Z,12.73
2019-01-28T23:57:19.918Z,12.85
2019-01-28T23:59:48.335Z,12.10
